Austin, Colorado
Current Conditions -  °F | °C
As of 6:15 PM on Saturday 22 Nov 2014 (Local Time) from KAJZ Reporting Station
Overcast Overcast  
Wind Chill: 38°   Ceiling: 7500
Heat Index: 44°   Visibility: 10mi
Dew Point: 35°   Wind: 13mph
Humidity: 70%   Direction: 40°NE
Pressure: 29.84"   Gusts: NA
Location:  38.78°N, 107.95°W
Report Text: KAJZ 230115Z AUTO 04011KT 10SM OVC075 07/02 A2984 RMK AO2 T00670015
Loading
Personal Weather Stations






























Interactive Weather Map New forecast layout! Learn more

10-Day Weather Forecast

Advertisements
Track Severe Weather on mobile